Latest Weather Observations for Fawkner Beacon

IDV60901

Issued at 5:31 am EST Friday 29 May 2020 (issued every 10 minutes, with the page automatically refreshed every 10 minutes)

About weather observations | Map of Melbourne area stations | Latest observations for Melbourne area | Other Formats
Station Details ID: 086376 Name: FAWKNER BEACON Lat: -37.95 Lon: 144.93 Height: 17.0 m
Data from the previous 72 hours. | See also: Recent months at Fawkner Beacon
Date/Time
EST
Temp
°C
App
Temp
°C
Dew
Point
°C
Rel
Hum
%
Delta-T
°C
Wind Press
QNH
hPa
Press
MSL
hPa
Rain since
9am
mm
Dir  Spd
km/h
Gust
km/h
Spd
kts
Gust
kts
29/05:30am - - - - - N 22 26 12 14 - - -
29/05:00am - - - - - N 19 22 10 12 - - -
29/04:30am - - - - - N 20 22 11 12 - - -
29/04:00am - - - - - N 19 22 10 12 - - -
29/03:30am - - - - - N 19 20 10 11 - - -
29/03:00am - - - - - N 15 17 8 9 - - -
29/02:30am - - - - - N 15 17 8 9 - - -
29/02:00am - - - - - N 13 15 7 8 - - -
29/01:30am - - - - - N 13 15 7 8 - - -
29/01:00am - - - - - N 9 11 5 6 - - -
29/12:30am - - - - - N 11 15 6 8 - - -
29/12:00am - - - - - NNW 13 17 7 9 - - -
 
Date/Time
EST
Temp
°C
App
Temp
°C
Dew
Point
°C
Rel
Hum
%
Delta-T
°C
Wind Press
QNH
hPa
Press
MSL
hPa
Rain since
9am
mm
Dir  Spd
km/h
Gust
km/h
Spd
kts
Gust
kts
28/11:30pm - - - - - N 13 17 7 9 - - -
28/11:00pm - - - - - N 15 20 8 11 - - -
28/10:30pm - - - - - N 11 15 6 8 - - -
28/10:00pm - - - - - N 13 15 7 8 - - -
28/09:30pm - - - - - N 11 13 6 7 - - -
28/09:00pm - - - - - N 13 20 7 11 - - -
28/08:30pm - - - - - N 9 11 5 6 - - -
28/08:00pm - - - - - N 9 11 5 6 - - -
28/07:30pm - - - - - NNW 4 6 2 3 - - -
28/07:00pm - - - - - NNW 2 6 1 3 - - -
28/06:30pm - - - - - CALM 0 0 0 0 - - -
28/06:00pm - - - - - CALM 0 0 0 0 - - -
28/05:30pm - - - - - N 7 9 4 5 - - -
28/05:00pm - - - - - N 7 11 4 6 - - -
28/04:30pm - - - - - CALM 0 0 0 0 - - -
28/04:00pm - - - - - SSW 6 7 3 4 - - -
28/03:30pm - - - - - S 7 9 4 5 - - -
28/03:00pm - - - - - SSW 9 11 5 6 - - -
28/02:30pm - - - - - S 11 13 6 7 - - -
28/02:00pm - - - - - SE 9 11 5 6 - - -
28/01:30pm - - - - - SE 9 13 5 7 - - -
28/01:00pm - - - - - ESE 7 9 4 5 - - -
28/12:30pm - - - - - CALM 0 0 0 0 - - -
28/12:00pm - - - - - NNW 6 7 3 4 - - -
28/11:30am - - - - - NW 2 4 1 2 - - -
28/11:00am - - - - - NW 4 6 2 3 - - -
28/10:30am - - - - - NW 7 11 4 6 - - -
28/10:00am - - - - - NNW 9 11 5 6 - - -
28/09:30am - - - - - NW 11 13 6 7 - - -
28/09:00am - - - - - NNW 15 17 8 9 - - -
28/08:30am - - - - - NNW 13 15 7 8 - - -
28/08:00am - - - - - NNW 15 17 8 9 - - -
28/07:30am - - - - - N 15 17 8 9 - - -
28/07:00am - - - - - NNW 13 17 7 9 - - -
28/06:30am - - - - - N 19 22 10 12 - - -
28/06:00am - - - - - N 22 26 12 14 - - -
28/05:30am - - - - - N 15 20 8 11 - - -
28/05:00am - - - - - N 20 24 11 13 - - -
28/04:30am - - - - - N 20 22 11 12 - - -
28/04:00am - - - - - N 20 22 11 12 - - -
28/03:30am - - - - - N 20 24 11 13 - - -
28/03:00am - - - - - N 26 30 14 16 - - -
28/02:30am - - - - - N 28 32 15 17 - - -
28/02:00am - - - - - N 28 32 15 17 - - -
28/01:30am - - - - - N 26 30 14 16 - - -
28/01:00am - - - - - N 24 28 13 15 - - -
28/12:30am - - - - - N 22 26 12 14 - - -
28/12:00am - - - - - N 20 24 11 13 - - -
 
Date/Time
EST
Temp
°C
App
Temp
°C
Dew
Point
°C
Rel
Hum
%
Delta-T
°C
Wind Press
QNH
hPa
Press
MSL
hPa
Rain since
9am
mm
Dir  Spd
km/h
Gust
km/h
Spd
kts
Gust
kts
27/11:30pm - - - - - N 20 22 11 12 - - -
27/11:00pm - - - - - N 20 22 11 12 - - -
27/10:30pm - - - - - N 20 24 11 13 - - -
27/10:00pm - - - - - N 20 24 11 13 - - -
27/09:30pm - - - - - N 22 24 12 13 - - -
27/09:00pm - - - - - N 20 24 11 13 - - -
27/08:30pm - - - - - N 22 28 12 15 - - -
27/08:00pm - - - - - N 24 30 13 16 - - -
27/07:30pm - - - - - N 24 28 13 15 - - -
27/07:00pm - - - - - N 26 30 14 16 - - -
27/06:30pm - - - - - N 30 35 16 19 - - -
27/06:00pm - - - - - N 28 33 15 18 - - -
27/05:30pm - - - - - N 37 43 20 23 - - -
27/05:00pm - - - - - N 32 39 17 21 - - -
27/04:30pm - - - - - N 30 33 16 18 - - -
27/04:00pm - - - - - N 26 30 14 16 - - -
27/03:30pm - - - - - N 30 35 16 19 - - -
27/03:00pm - - - - - N 33 41 18 22 - - -
27/02:30pm - - - - - N 33 41 18 22 - - -
27/02:00pm - - - - - N 32 41 17 22 - - -
27/01:30pm - - - - - N 32 39 17 21 - - -
27/01:00pm - - - - - N 26 30 14 16 - - -
27/12:30pm - - - - - N 33 41 18 22 - - -
27/12:00pm - - - - - N 37 44 20 24 - - -
27/11:30am - - - - - N 44 52 24 28 - - -
27/11:00am - - - - - N 33 41 18 22 - - -
27/10:30am - - - - - N 37 44 20 24 - - -
27/10:00am - - - - - N 33 44 18 24 - - -
27/09:30am - - - - - N 24 32 13 17 - - -
27/09:00am - - - - - N 28 33 15 18 - - -
27/08:30am - - - - - N 20 24 11 13 - - -
27/08:00am - - - - - N 24 30 13 16 - - -
27/07:30am - - - - - NNE 20 24 11 13 - - -
27/07:00am - - - - - NNE 13 15 7 8 - - -
27/06:30am - - - - - NNE 11 15 6 8 - - -
27/06:00am - - - - - N 7 9 4 5 - - -
27/05:30am - - - - - NE 4 7 2 4 - - -
27/05:00am - - - - - NNE 6 9 3 5 - - -
27/04:30am - - - - - NE 6 9 3 5 - - -
27/04:00am - - - - - NNE 2 6 1 3 - - -
27/03:30am - - - - - NE 7 9 4 5 - - -
27/03:00am - - - - - NNE 2 7 1 4 - - -
27/02:30am - - - - - N 9 13 5 7 - - -
27/02:00am - - - - - N 11 13 6 7 - - -
27/01:30am - - - - - N 13 17 7 9 - - -
27/01:00am - - - - - N 13 17 7 9 - - -
27/12:30am - - - - - NNE 17 22 9 12 - - -
27/12:00am - - - - - N 15 17 8 9 - - -
 
Date/Time
EST
Temp
°C
App
Temp
°C
Dew
Point
°C
Rel
Hum
%
Delta-T
°C
Wind Press
QNH
hPa
Press
MSL
hPa
Rain since
9am
mm
Dir  Spd
km/h
Gust
km/h
Spd
kts
Gust
kts
26/11:30pm - - - - - N 17 20 9 11 - - -
26/11:00pm - - - - - N 17 22 9 12 - - -
26/10:30pm - - - - - N 17 20 9 11 - - -
26/10:00pm - - - - - N 17 22 9 12 - - -
26/09:30pm - - - - - N 20 24 11 13 - - -
26/09:00pm - - - - - N 17 20 9 11 - - -
26/08:30pm - - - - - NNE 15 17 8 9 - - -
26/08:00pm - - - - - NNE 13 15 7 8 - - -
26/07:30pm - - - - - NNE 17 20 9 11 - - -
26/07:00pm - - - - - N 19 20 10 11 - - -
26/06:30pm - - - - - N 20 22 11 12 - - -
26/06:00pm - - - - - N 20 22 11 12 - - -
26/05:30pm - - - - - N 20 22 11 12 - - -
26/05:00pm - - - - - NNE 11 15 6 8 - - -
26/04:30pm - - - - - NE 9 13 5 7 - - -
26/04:00pm - - - - - E 13 17 7 9 - - -
26/03:30pm - - - - - E 15 17 8 9 - - -
26/03:00pm - - - - - ESE 13 15 7 8 - - -
26/02:30pm - - - - - SE 13 15 7 8 - - -
26/02:00pm - - - - - SSE 11 11 6 6 - - -
26/01:30pm - - - - - SSW 9 11 5 6 - - -
26/01:00pm - - - - - SE 7 9 4 5 - - -
26/12:30pm - - - - - E 7 9 4 5 - - -
26/12:00pm - - - - - NE 6 7 3 4 - - -
26/11:30am - - - - - N 7 11 4 6 - - -
26/11:00am - - - - - N 9 13 5 7 - - -
26/10:30am - - - - - N 13 17 7 9 - - -
26/10:00am - - - - - N 13 17 7 9 - - -
26/09:30am - - - - - N 13 22 7 12 - - -
26/09:00am - - - - - NNE 13 17 7 9 - - -
26/08:30am - - - - - NNE 11 17 6 9 - - -
26/08:00am - - - - - N 7 11 4 6 - - -
26/07:30am - - - - - N 7 11 4 6 - - -
26/07:00am - - - - - N 6 11 3 6 - - -
26/06:30am - - - - - NNE 6 9 3 5 - - -
26/06:00am - - - - - CALM 0 6 0 3 - - -

Latest Capital City Observations: Canberra | Sydney | Melbourne | Brisbane | Adelaide | Perth | Hobart | Darwin

Other formats

Comma delimited format used in spreadsheet applications
http://www.bom.gov.au/fwo/IDV60901/IDV60901.95872.axf

JavaScript Object Notation format (JSON) in row-major order
http://www.bom.gov.au/fwo/IDV60901/IDV60901.95872.json

Data quality

Most of these data are generated automatically and are frequently updated. Quality checks on data are not normally performed. It is possible for incorrect values to appear. Refer to information at About Latest Weather Observations and please check the disclaimer before using these data.